sensor_id;sensor_type;location;lat;lon;timestamp;P1;durP1;ratioP1;P2;durP2;ratioP2
28760;SDS011;15917;50.014;8.352;2023-04-21T00:00:58;43.85;;;27.55;;
28760;SDS011;15917;50.014;8.352;2023-04-21T00:03:24;51.38;;;28.67;;
28760;SDS011;15917;50.014;8.352;2023-04-21T00:05:52;46.22;;;26.48;;
28760;SDS011;15917;50.014;8.352;2023-04-21T00:08:22;50.10;;;28.63;;
28760;SDS011;15917;50.014;8.352;2023-04-21T00:10:48;48.05;;;28.20;;
28760;SDS011;15917;50.014;8.352;2023-04-21T00:13:14;50.10;;;29.95;;
28760;SDS011;15917;50.014;8.352;2023-04-21T00:15:40;47.95;;;27.58;;
28760;SDS011;15917;50.014;8.352;2023-04-21T00:18:06;50.38;;;29.30;;
28760;SDS011;15917;50.014;8.352;2023-04-21T00:20:31;52.60;;;29.55;;
28760;SDS011;15917;50.014;8.352;2023-04-21T00:22:57;47.38;;;27.35;;
28760;SDS011;15917;50.014;8.352;2023-04-21T00:25:24;49.20;;;27.63;;
28760;SDS011;15917;50.014;8.352;2023-04-21T00:27:50;47.47;;;26.60;;
28760;SDS011;15917;50.014;8.352;2023-04-21T00:30:16;52.03;;;28.45;;
28760;SDS011;15917;50.014;8.352;2023-04-21T00:32:42;49.65;;;29.88;;
28760;SDS011;15917;50.014;8.352;2023-04-21T00:35:07;53.88;;;30.83;;
28760;SDS011;15917;50.014;8.352;2023-04-21T00:37:33;57.28;;;31.60;;
28760;SDS011;15917;50.014;8.352;2023-04-21T00:39:59;53.40;;;31.35;;
28760;SDS011;15917;50.014;8.352;2023-04-21T00:42:25;55.55;;;30.80;;
28760;SDS011;15917;50.014;8.352;2023-04-21T00:44:51;53.67;;;31.90;;
28760;SDS011;15917;50.014;8.352;2023-04-21T00:47:17;52.97;;;29.75;;
28760;SDS011;15917;50.014;8.352;2023-04-21T00:49:43;56.83;;;30.83;;
28760;SDS011;15917;50.014;8.352;2023-04-21T00:52:10;60.00;;;31.40;;
28760;SDS011;15917;50.014;8.352;2023-04-21T00:54:36;55.38;;;32.03;;
28760;SDS011;15917;50.014;8.352;2023-04-21T00:57:02;52.83;;;29.60;;
28760;SDS011;15917;50.014;8.352;2023-04-21T00:59:31;55.47;;;32.15;;
28760;SDS011;15917;50.014;8.352;2023-04-21T01:01:57;57.80;;;32.45;;
28760;SDS011;15917;50.014;8.352;2023-04-21T01:04:23;64.05;;;33.10;;
28760;SDS011;15917;50.014;8.352;2023-04-21T01:06:48;61.75;;;32.33;;
28760;SDS011;15917;50.014;8.352;2023-04-21T01:09:15;54.28;;;32.20;;
28760;SDS011;15917;50.014;8.352;2023-04-21T01:11:40;56.63;;;30.90;;
28760;SDS011;15917;50.014;8.352;2023-04-21T01:14:06;57.58;;;31.30;;
28760;SDS011;15917;50.014;8.352;2023-04-21T01:16:32;49.65;;;29.02;;
28760;SDS011;15917;50.014;8.352;2023-04-21T01:18:58;53.70;;;30.83;;
28760;SDS011;15917;50.014;8.352;2023-04-21T01:21:25;55.28;;;31.40;;
28760;SDS011;15917;50.014;8.352;2023-04-21T01:23:52;55.08;;;30.25;;
28760;SDS011;15917;50.014;8.352;2023-04-21T01:26:18;59.55;;;30.38;;
28760;SDS011;15917;50.014;8.352;2023-04-21T01:28:47;57.25;;;31.00;;
28760;SDS011;15917;50.014;8.352;2023-04-21T01:31:14;57.55;;;31.70;;
28760;SDS011;15917;50.014;8.352;2023-04-21T01:33:41;54.83;;;28.92;;
28760;SDS011;15917;50.014;8.352;2023-04-21T01:36:08;55.83;;;31.23;;
28760;SDS011;15917;50.014;8.352;2023-04-21T01:38:37;52.30;;;31.08;;
28760;SDS011;15917;50.014;8.352;2023-04-21T01:41:05;59.38;;;32.47;;
28760;SDS011;15917;50.014;8.352;2023-04-21T01:43:32;57.30;;;32.42;;
28760;SDS011;15917;50.014;8.352;2023-04-21T01:45:57;61.03;;;31.63;;
28760;SDS011;15917;50.014;8.352;2023-04-21T01:48:23;58.03;;;32.17;;
28760;SDS011;15917;50.014;8.352;2023-04-21T01:50:49;58.92;;;31.30;;
28760;SDS011;15917;50.014;8.352;2023-04-21T01:53:14;54.42;;;30.38;;
28760;SDS011;15917;50.014;8.352;2023-04-21T01:55:40;56.95;;;29.45;;
28760;SDS011;15917;50.014;8.352;2023-04-21T01:58:07;51.65;;;28.42;;
28760;SDS011;15917;50.014;8.352;2023-04-21T02:00:33;51.33;;;28.98;;
28760;SDS011;15917;50.014;8.352;2023-04-21T02:02:59;51.25;;;28.63;;
28760;SDS011;15917;50.014;8.352;2023-04-21T02:05:25;63.38;;;29.80;;
28760;SDS011;15917;50.014;8.352;2023-04-21T02:07:50;54.35;;;29.58;;
28760;SDS011;15917;50.014;8.352;2023-04-21T02:10:16;54.00;;;29.35;;
28760;SDS011;15917;50.014;8.352;2023-04-21T02:12:42;55.67;;;29.65;;
28760;SDS011;15917;50.014;8.352;2023-04-21T02:15:08;54.60;;;28.80;;
28760;SDS011;15917;50.014;8.352;2023-04-21T02:17:34;53.63;;;29.20;;
28760;SDS011;15917;50.014;8.352;2023-04-21T02:20:00;58.63;;;32.17;;
28760;SDS011;15917;50.014;8.352;2023-04-21T02:22:27;59.55;;;31.67;;
28760;SDS011;15917;50.014;8.352;2023-04-21T02:24:53;59.38;;;32.08;;
28760;SDS011;15917;50.014;8.352;2023-04-21T02:27:19;67.93;;;32.83;;
28760;SDS011;15917;50.014;8.352;2023-04-21T02:29:45;64.43;;;34.78;;
28760;SDS011;15917;50.014;8.352;2023-04-21T02:32:10;58.67;;;31.98;;
28760;SDS011;15917;50.014;8.352;2023-04-21T02:34:36;61.47;;;32.17;;
28760;SDS011;15917;50.014;8.352;2023-04-21T02:37:03;59.45;;;30.55;;
28760;SDS011;15917;50.014;8.352;2023-04-21T02:39:29;57.38;;;29.75;;
28760;SDS011;15917;50.014;8.352;2023-04-21T02:41:54;52.83;;;28.77;;
28760;SDS011;15917;50.014;8.352;2023-04-21T02:44:20;53.05;;;27.90;;
28760;SDS011;15917;50.014;8.352;2023-04-21T02:46:46;54.55;;;29.85;;
28760;SDS011;15917;50.014;8.352;2023-04-21T02:49:12;55.17;;;29.27;;
28760;SDS011;15917;50.014;8.352;2023-04-21T02:51:38;58.55;;;30.02;;
28760;SDS011;15917;50.014;8.352;2023-04-21T02:54:04;50.63;;;27.40;;
28760;SDS011;15917;50.014;8.352;2023-04-21T02:56:30;54.13;;;28.67;;
28760;SDS011;15917;50.014;8.352;2023-04-21T02:58:56;57.72;;;31.35;;
28760;SDS011;15917;50.014;8.352;2023-04-21T03:01:22;54.70;;;29.55;;
28760;SDS011;15917;50.014;8.352;2023-04-21T03:03:47;60.83;;;30.10;;
28760;SDS011;15917;50.014;8.352;2023-04-21T03:06:13;58.10;;;32.08;;
28760;SDS011;15917;50.014;8.352;2023-04-21T03:08:38;60.53;;;31.52;;
28760;SDS011;15917;50.014;8.352;2023-04-21T03:11:04;57.97;;;30.30;;
28760;SDS011;15917;50.014;8.352;2023-04-21T03:13:30;59.05;;;30.25;;
28760;SDS011;15917;50.014;8.352;2023-04-21T03:15:55;60.25;;;30.42;;
28760;SDS011;15917;50.014;8.352;2023-04-21T03:18:21;54.10;;;28.27;;
28760;SDS011;15917;50.014;8.352;2023-04-21T03:20:48;58.63;;;30.57;;
28760;SDS011;15917;50.014;8.352;2023-04-21T03:23:14;56.65;;;29.40;;
28760;SDS011;15917;50.014;8.352;2023-04-21T03:25:40;57.47;;;29.13;;
28760;SDS011;15917;50.014;8.352;2023-04-21T03:28:06;56.33;;;29.85;;
28760;SDS011;15917;50.014;8.352;2023-04-21T03:30:32;55.72;;;29.42;;
28760;SDS011;15917;50.014;8.352;2023-04-21T03:32:57;52.90;;;28.50;;
28760;SDS011;15917;50.014;8.352;2023-04-21T03:35:23;57.45;;;29.08;;
28760;SDS011;15917;50.014;8.352;2023-04-21T03:37:49;60.40;;;30.15;;
28760;SDS011;15917;50.014;8.352;2023-04-21T03:40:14;60.22;;;30.02;;
28760;SDS011;15917;50.014;8.352;2023-04-21T03:42:41;57.22;;;30.02;;
28760;SDS011;15917;50.014;8.352;2023-04-21T03:45:07;53.15;;;28.98;;
28760;SDS011;15917;50.014;8.352;2023-04-21T03:47:33;62.70;;;31.17;;
28760;SDS011;15917;50.014;8.352;2023-04-21T03:49:59;64.93;;;32.35;;
28760;SDS011;15917;50.014;8.352;2023-04-21T03:52:27;62.35;;;31.88;;
28760;SDS011;15917;50.014;8.352;2023-04-21T03:54:52;68.50;;;33.17;;
28760;SDS011;15917;50.014;8.352;2023-04-21T03:57:18;59.22;;;31.67;;
28760;SDS011;15917;50.014;8.352;2023-04-21T03:59:43;61.33;;;31.77;;
28760;SDS011;15917;50.014;8.352;2023-04-21T04:02:09;59.45;;;30.05;;
28760;SDS011;15917;50.014;8.352;2023-04-21T04:04:35;59.03;;;29.85;;
28760;SDS011;15917;50.014;8.352;2023-04-21T04:07:00;56.78;;;28.65;;
28760;SDS011;15917;50.014;8.352;2023-04-21T04:09:26;55.47;;;28.85;;
28760;SDS011;15917;50.014;8.352;2023-04-21T04:11:52;54.70;;;28.65;;
28760;SDS011;15917;50.014;8.352;2023-04-21T04:14:17;56.65;;;28.55;;
28760;SDS011;15917;50.014;8.352;2023-04-21T04:16:43;58.88;;;29.33;;
28760;SDS011;15917;50.014;8.352;2023-04-21T04:19:08;60.47;;;30.05;;
28760;SDS011;15917;50.014;8.352;2023-04-21T04:21:34;68.05;;;33.40;;
28760;SDS011;15917;50.014;8.352;2023-04-21T04:24:00;59.08;;;32.25;;
28760;SDS011;15917;50.014;8.352;2023-04-21T04:26:29;66.55;;;32.80;;
28760;SDS011;15917;50.014;8.352;2023-04-21T04:28:58;68.53;;;33.65;;
28760;SDS011;15917;50.014;8.352;2023-04-21T04:31:24;65.47;;;31.90;;
28760;SDS011;15917;50.014;8.352;2023-04-21T04:33:50;68.38;;;34.08;;
28760;SDS011;15917;50.014;8.352;2023-04-21T04:36:16;72.32;;;35.35;;
28760;SDS011;15917;50.014;8.352;2023-04-21T04:38:42;78.32;;;37.38;;
28760;SDS011;15917;50.014;8.352;2023-04-21T04:41:07;76.25;;;37.22;;
28760;SDS011;15917;50.014;8.352;2023-04-21T04:43:33;70.38;;;35.55;;
28760;SDS011;15917;50.014;8.352;2023-04-21T04:46:01;77.65;;;37.90;;
28760;SDS011;15917;50.014;8.352;2023-04-21T04:48:27;75.38;;;34.00;;
28760;SDS011;15917;50.014;8.352;2023-04-21T04:50:53;69.95;;;33.13;;
28760;SDS011;15917;50.014;8.352;2023-04-21T04:53:18;64.93;;;31.35;;
28760;SDS011;15917;50.014;8.352;2023-04-21T04:55:44;69.55;;;33.70;;
28760;SDS011;15917;50.014;8.352;2023-04-21T04:58:11;72.70;;;34.20;;
28760;SDS011;15917;50.014;8.352;2023-04-21T05:00:37;77.22;;;35.75;;
28760;SDS011;15917;50.014;8.352;2023-04-21T05:03:02;68.47;;;35.45;;
28760;SDS011;15917;50.014;8.352;2023-04-21T05:05:28;75.40;;;36.92;;
28760;SDS011;15917;50.014;8.352;2023-04-21T05:07:54;68.63;;;33.78;;
28760;SDS011;15917;50.014;8.352;2023-04-21T05:10:19;72.53;;;34.78;;
28760;SDS011;15917;50.014;8.352;2023-04-21T05:12:45;66.75;;;32.38;;
28760;SDS011;15917;50.014;8.352;2023-04-21T05:15:11;64.18;;;31.70;;
28760;SDS011;15917;50.014;8.352;2023-04-21T05:17:36;59.28;;;30.00;;
28760;SDS011;15917;50.014;8.352;2023-04-21T05:20:05;64.07;;;31.67;;
28760;SDS011;15917;50.014;8.352;2023-04-21T05:22:36;62.08;;;30.15;;
28760;SDS011;15917;50.014;8.352;2023-04-21T05:25:02;54.78;;;29.67;;
28760;SDS011;15917;50.014;8.352;2023-04-21T05:27:28;68.93;;;31.05;;
28760;SDS011;15917;50.014;8.352;2023-04-21T05:29:54;67.63;;;31.83;;
28760;SDS011;15917;50.014;8.352;2023-04-21T05:32:20;71.03;;;33.58;;
28760;SDS011;15917;50.014;8.352;2023-04-21T05:34:45;65.22;;;31.35;;
28760;SDS011;15917;50.014;8.352;2023-04-21T05:37:11;67.10;;;33.85;;
28760;SDS011;15917;50.014;8.352;2023-04-21T05:39:37;63.03;;;33.60;;
28760;SDS011;15917;50.014;8.352;2023-04-21T05:42:02;68.13;;;32.70;;
28760;SDS011;15917;50.014;8.352;2023-04-21T05:44:28;60.13;;;30.75;;
28760;SDS011;15917;50.014;8.352;2023-04-21T05:46:53;62.72;;;31.30;;
28760;SDS011;15917;50.014;8.352;2023-04-21T05:49:19;62.72;;;31.92;;
28760;SDS011;15917;50.014;8.352;2023-04-21T05:51:45;63.55;;;32.13;;
28760;SDS011;15917;50.014;8.352;2023-04-21T05:54:11;57.28;;;30.13;;
28760;SDS011;15917;50.014;8.352;2023-04-21T05:56:36;60.80;;;30.55;;
28760;SDS011;15917;50.014;8.352;2023-04-21T05:59:02;56.75;;;29.95;;
28760;SDS011;15917;50.014;8.352;2023-04-21T06:01:28;57.10;;;30.05;;
28760;SDS011;15917;50.014;8.352;2023-04-21T06:03:53;66.00;;;31.80;;
28760;SDS011;15917;50.014;8.352;2023-04-21T06:06:19;63.83;;;30.45;;
28760;SDS011;15917;50.014;8.352;2023-04-21T06:08:45;60.58;;;30.17;;
28760;SDS011;15917;50.014;8.352;2023-04-21T06:11:10;52.80;;;29.45;;
28760;SDS011;15917;50.014;8.352;2023-04-21T06:13:36;60.55;;;30.85;;
28760;SDS011;15917;50.014;8.352;2023-04-21T06:16:01;63.45;;;29.70;;
28760;SDS011;15917;50.014;8.352;2023-04-21T06:18:27;56.03;;;29.77;;
28760;SDS011;15917;50.014;8.352;2023-04-21T06:20:53;57.80;;;30.80;;
28760;SDS011;15917;50.014;8.352;2023-04-21T06:23:19;59.53;;;30.85;;
28760;SDS011;15917;50.014;8.352;2023-04-21T06:25:46;57.88;;;30.17;;
28760;SDS011;15917;50.014;8.352;2023-04-21T06:28:12;61.97;;;32.08;;
28760;SDS011;15917;50.014;8.352;2023-04-21T06:30:37;62.40;;;31.00;;
28760;SDS011;15917;50.014;8.352;2023-04-21T06:33:03;55.78;;;30.20;;
28760;SDS011;15917;50.014;8.352;2023-04-21T06:35:30;56.15;;;29.52;;
28760;SDS011;15917;50.014;8.352;2023-04-21T06:37:56;58.00;;;29.88;;
28760;SDS011;15917;50.014;8.352;2023-04-21T06:40:22;60.05;;;28.73;;
28760;SDS011;15917;50.014;8.352;2023-04-21T06:42:47;60.22;;;31.20;;
28760;SDS011;15917;50.014;8.352;2023-04-21T06:45:13;60.28;;;30.80;;
28760;SDS011;15917;50.014;8.352;2023-04-21T06:47:38;61.42;;;31.45;;
28760;SDS011;15917;50.014;8.352;2023-04-21T06:50:04;54.92;;;30.15;;
28760;SDS011;15917;50.014;8.352;2023-04-21T06:52:30;59.58;;;29.40;;
28760;SDS011;15917;50.014;8.352;2023-04-21T06:54:56;60.85;;;30.13;;
28760;SDS011;15917;50.014;8.352;2023-04-21T06:57:21;57.17;;;31.02;;
28760;SDS011;15917;50.014;8.352;2023-04-21T06:59:47;60.42;;;31.38;;
28760;SDS011;15917;50.014;8.352;2023-04-21T07:02:13;60.13;;;29.90;;
28760;SDS011;15917;50.014;8.352;2023-04-21T07:04:38;56.67;;;29.85;;
28760;SDS011;15917;50.014;8.352;2023-04-21T07:07:04;60.22;;;29.33;;
28760;SDS011;15917;50.014;8.352;2023-04-21T07:09:30;61.97;;;30.50;;
28760;SDS011;15917;50.014;8.352;2023-04-21T07:11:57;58.55;;;30.23;;
28760;SDS011;15917;50.014;8.352;2023-04-21T07:14:24;57.95;;;29.52;;
28760;SDS011;15917;50.014;8.352;2023-04-21T07:16:50;57.95;;;29.77;;
28760;SDS011;15917;50.014;8.352;2023-04-21T07:19:15;61.92;;;30.58;;
28760;SDS011;15917;50.014;8.352;2023-04-21T07:21:41;63.70;;;33.78;;
28760;SDS011;15917;50.014;8.352;2023-04-21T07:24:07;67.18;;;32.42;;
28760;SDS011;15917;50.014;8.352;2023-04-21T07:26:32;63.75;;;31.73;;
28760;SDS011;15917;50.014;8.352;2023-04-21T07:28:58;60.28;;;31.15;;
28760;SDS011;15917;50.014;8.352;2023-04-21T07:31:24;65.80;;;31.65;;
28760;SDS011;15917;50.014;8.352;2023-04-21T07:33:49;61.08;;;29.80;;
28760;SDS011;15917;50.014;8.352;2023-04-21T07:36:15;57.03;;;31.10;;
28760;SDS011;15917;50.014;8.352;2023-04-21T07:38:41;60.58;;;29.58;;
28760;SDS011;15917;50.014;8.352;2023-04-21T07:41:10;65.25;;;30.65;;
28760;SDS011;15917;50.014;8.352;2023-04-21T07:43:37;58.92;;;30.75;;
28760;SDS011;15917;50.014;8.352;2023-04-21T07:46:03;56.55;;;30.25;;
28760;SDS011;15917;50.014;8.352;2023-04-21T07:48:29;62.70;;;31.02;;
28760;SDS011;15917;50.014;8.352;2023-04-21T07:50:55;59.58;;;30.02;;
28760;SDS011;15917;50.014;8.352;2023-04-21T07:53:22;66.72;;;33.25;;
28760;SDS011;15917;50.014;8.352;2023-04-21T07:55:48;57.85;;;29.30;;
28760;SDS011;15917;50.014;8.352;2023-04-21T07:58:14;59.75;;;31.38;;
28760;SDS011;15917;50.014;8.352;2023-04-21T08:00:41;58.80;;;30.02;;
28760;SDS011;15917;50.014;8.352;2023-04-21T08:03:06;56.30;;;29.70;;
28760;SDS011;15917;50.014;8.352;2023-04-21T08:05:32;57.97;;;29.95;;
28760;SDS011;15917;50.014;8.352;2023-04-21T08:07:58;54.58;;;29.20;;
28760;SDS011;15917;50.014;8.352;2023-04-21T08:10:23;57.22;;;29.80;;
28760;SDS011;15917;50.014;8.352;2023-04-21T08:12:49;54.00;;;28.55;;
28760;SDS011;15917;50.014;8.352;2023-04-21T08:15:15;55.30;;;29.73;;
28760;SDS011;15917;50.014;8.352;2023-04-21T08:17:41;51.92;;;29.08;;
28760;SDS011;15917;50.014;8.352;2023-04-21T08:20:06;55.50;;;27.52;;
28760;SDS011;15917;50.014;8.352;2023-04-21T08:22:33;52.00;;;25.67;;
28760;SDS011;15917;50.014;8.352;2023-04-21T08:25:00;50.90;;;24.88;;
28760;SDS011;15917;50.014;8.352;2023-04-21T08:27:26;55.85;;;26.40;;
28760;SDS011;15917;50.014;8.352;2023-04-21T08:29:52;52.88;;;25.90;;
28760;SDS011;15917;50.014;8.352;2023-04-21T08:32:17;50.60;;;26.75;;
28760;SDS011;15917;50.014;8.352;2023-04-21T08:34:47;52.28;;;25.92;;
28760;SDS011;15917;50.014;8.352;2023-04-21T08:37:15;49.92;;;27.02;;
28760;SDS011;15917;50.014;8.352;2023-04-21T08:39:42;53.40;;;27.83;;
28760;SDS011;15917;50.014;8.352;2023-04-21T08:42:08;56.50;;;27.55;;
28760;SDS011;15917;50.014;8.352;2023-04-21T08:44:34;53.45;;;27.13;;
28760;SDS011;15917;50.014;8.352;2023-04-21T08:47:01;52.40;;;27.45;;
28760;SDS011;15917;50.014;8.352;2023-04-21T08:49:28;50.03;;;26.83;;
28760;SDS011;15917;50.014;8.352;2023-04-21T08:51:55;45.60;;;26.48;;
28760;SDS011;15917;50.014;8.352;2023-04-21T08:54:21;51.28;;;26.77;;
28760;SDS011;15917;50.014;8.352;2023-04-21T08:56:47;51.45;;;27.42;;
28760;SDS011;15917;50.014;8.352;2023-04-21T08:59:13;48.88;;;27.00;;
28760;SDS011;15917;50.014;8.352;2023-04-21T09:04:37;49.67;;;27.48;;
28760;SDS011;15917;50.014;8.352;2023-04-21T09:07:04;45.77;;;26.37;;
28760;SDS011;15917;50.014;8.352;2023-04-21T09:09:29;51.33;;;29.05;;
28760;SDS011;15917;50.014;8.352;2023-04-21T09:11:55;59.60;;;27.58;;
28760;SDS011;15917;50.014;8.352;2023-04-21T09:14:31;48.47;;;27.45;;
28760;SDS011;15917;50.014;8.352;2023-04-21T09:17:02;48.35;;;27.27;;
28760;SDS011;15917;50.014;8.352;2023-04-21T09:19:28;53.25;;;31.65;;
28760;SDS011;15917;50.014;8.352;2023-04-21T09:21:57;52.97;;;29.42;;
28760;SDS011;15917;50.014;8.352;2023-04-21T09:26:51;51.10;;;27.80;;
28760;SDS011;15917;50.014;8.352;2023-04-21T09:29:17;46.95;;;26.55;;
28760;SDS011;15917;50.014;8.352;2023-04-21T09:31:47;45.10;;;26.52;;
28760;SDS011;15917;50.014;8.352;2023-04-21T09:34:16;47.42;;;25.33;;
28760;SDS011;15917;50.014;8.352;2023-04-21T09:36:47;50.22;;;24.20;;
28760;SDS011;15917;50.014;8.352;2023-04-21T09:39:13;39.42;;;22.95;;
28760;SDS011;15917;50.014;8.352;2023-04-21T09:41:38;37.35;;;22.52;;
28760;SDS011;15917;50.014;8.352;2023-04-21T09:44:04;45.10;;;23.02;;
28760;SDS011;15917;50.014;8.352;2023-04-21T09:46:31;39.50;;;23.15;;
28760;SDS011;15917;50.014;8.352;2023-04-21T09:51:24;41.63;;;21.95;;
28760;SDS011;15917;50.014;8.352;2023-04-21T09:53:52;38.00;;;20.63;;
28760;SDS011;15917;50.014;8.352;2023-04-21T09:56:23;37.63;;;22.02;;
28760;SDS011;15917;50.014;8.352;2023-04-21T09:58:53;36.88;;;21.20;;
28760;SDS011;15917;50.014;8.352;2023-04-21T10:01:21;36.05;;;19.95;;
28760;SDS011;15917;50.014;8.352;2023-04-21T10:03:50;29.98;;;18.75;;
28760;SDS011;15917;50.014;8.352;2023-04-21T10:06:17;42.63;;;21.40;;
28760;SDS011;15917;50.014;8.352;2023-04-21T10:08:43;39.90;;;22.08;;
28760;SDS011;15917;50.014;8.352;2023-04-21T10:11:10;39.00;;;23.08;;
28760;SDS011;15917;50.014;8.352;2023-04-21T10:13:37;38.90;;;20.95;;
28760;SDS011;15917;50.014;8.352;2023-04-21T10:16:07;42.78;;;21.55;;
28760;SDS011;15917;50.014;8.352;2023-04-21T10:18:33;34.70;;;20.95;;
28760;SDS011;15917;50.014;8.352;2023-04-21T10:21:05;35.58;;;20.60;;
28760;SDS011;15917;50.014;8.352;2023-04-21T10:23:36;41.63;;;23.63;;
28760;SDS011;15917;50.014;8.352;2023-04-21T10:31:21;31.13;;;15.55;;
28760;SDS011;15917;50.014;8.352;2023-04-21T10:39:25;34.42;;;17.63;;
28760;SDS011;15917;50.014;8.352;2023-04-21T10:41:55;37.03;;;18.83;;
28760;SDS011;15917;50.014;8.352;2023-04-21T10:44:23;32.95;;;19.27;;
28760;SDS011;15917;50.014;8.352;2023-04-21T10:46:49;35.42;;;20.10;;
28760;SDS011;15917;50.014;8.352;2023-04-21T10:54:25;31.42;;;17.63;;
28760;SDS011;15917;50.014;8.352;2023-04-21T10:56:55;29.55;;;17.30;;
28760;SDS011;15917;50.014;8.352;2023-04-21T10:59:22;28.90;;;17.27;;
28760;SDS011;15917;50.014;8.352;2023-04-21T11:01:48;31.67;;;17.50;;
28760;SDS011;15917;50.014;8.352;2023-04-21T11:04:17;29.75;;;16.73;;
28760;SDS011;15917;50.014;8.352;2023-04-21T11:09:33;32.27;;;19.87;;
28760;SDS011;15917;50.014;8.352;2023-04-21T11:12:03;34.80;;;18.65;;
28760;SDS011;15917;50.014;8.352;2023-04-21T11:14:31;28.65;;;17.02;;
28760;SDS011;15917;50.014;8.352;2023-04-21T11:16:59;30.20;;;16.10;;
28760;SDS011;15917;50.014;8.352;2023-04-21T11:19:25;26.55;;;15.95;;
28760;SDS011;15917;50.014;8.352;2023-04-21T11:21:51;29.15;;;16.42;;
28760;SDS011;15917;50.014;8.352;2023-04-21T11:24:21;30.00;;;15.50;;
28760;SDS011;15917;50.014;8.352;2023-04-21T11:26:47;31.65;;;14.57;;
28760;SDS011;15917;50.014;8.352;2023-04-21T11:29:13;30.27;;;17.27;;
28760;SDS011;15917;50.014;8.352;2023-04-21T11:31:40;29.70;;;17.08;;
28760;SDS011;15917;50.014;8.352;2023-04-21T11:34:08;27.63;;;16.10;;
28760;SDS011;15917;50.014;8.352;2023-04-21T11:36:40;27.05;;;15.52;;
28760;SDS011;15917;50.014;8.352;2023-04-21T11:39:07;27.58;;;14.40;;
28760;SDS011;15917;50.014;8.352;2023-04-21T11:41:37;26.40;;;14.18;;
28760;SDS011;15917;50.014;8.352;2023-04-21T11:44:07;26.45;;;14.48;;
28760;SDS011;15917;50.014;8.352;2023-04-21T11:46:33;30.25;;;15.13;;
28760;SDS011;15917;50.014;8.352;2023-04-21T11:49:05;24.77;;;14.55;;
28760;SDS011;15917;50.014;8.352;2023-04-21T11:53:58;22.52;;;12.90;;
28760;SDS011;15917;50.014;8.352;2023-04-21T11:56:24;19.00;;;12.52;;
28760;SDS011;15917;50.014;8.352;2023-04-21T11:58:50;22.92;;;13.98;;
28760;SDS011;15917;50.014;8.352;2023-04-21T12:01:17;19.35;;;12.07;;
28760;SDS011;15917;50.014;8.352;2023-04-21T12:03:53;22.33;;;13.30;;
28760;SDS011;15917;50.014;8.352;2023-04-21T12:06:23;21.45;;;12.90;;
28760;SDS011;15917;50.014;8.352;2023-04-21T12:09:00;20.50;;;11.27;;
28760;SDS011;15917;50.014;8.352;2023-04-21T12:11:30;28.27;;;11.93;;
28760;SDS011;15917;50.014;8.352;2023-04-21T12:13:56;19.52;;;11.95;;
28760;SDS011;15917;50.014;8.352;2023-04-21T12:16:28;21.63;;;13.38;;
28760;SDS011;15917;50.014;8.352;2023-04-21T12:18:55;21.55;;;11.60;;
28760;SDS011;15917;50.014;8.352;2023-04-21T12:21:25;26.00;;;12.20;;
28760;SDS011;15917;50.014;8.352;2023-04-21T12:23:54;22.60;;;13.18;;
28760;SDS011;15917;50.014;8.352;2023-04-21T12:26:21;23.02;;;11.57;;
28760;SDS011;15917;50.014;8.352;2023-04-21T12:28:49;20.75;;;12.25;;
28760;SDS011;15917;50.014;8.352;2023-04-21T12:31:15;19.30;;;11.90;;
28760;SDS011;15917;50.014;8.352;2023-04-21T12:33:42;19.50;;;11.63;;
28760;SDS011;15917;50.014;8.352;2023-04-21T12:36:07;21.15;;;12.15;;
28760;SDS011;15917;50.014;8.352;2023-04-21T12:38:33;18.35;;;11.48;;
28760;SDS011;15917;50.014;8.352;2023-04-21T12:40:59;20.60;;;12.40;;
28760;SDS011;15917;50.014;8.352;2023-04-21T12:43:24;24.40;;;13.00;;
28760;SDS011;15917;50.014;8.352;2023-04-21T12:45:50;20.08;;;12.57;;
28760;SDS011;15917;50.014;8.352;2023-04-21T12:48:17;22.70;;;12.93;;
28760;SDS011;15917;50.014;8.352;2023-04-21T12:50:45;23.55;;;12.93;;
28760;SDS011;15917;50.014;8.352;2023-04-21T12:53:11;18.33;;;11.38;;
28760;SDS011;15917;50.014;8.352;2023-04-21T12:55:37;21.52;;;12.77;;
28760;SDS011;15917;50.014;8.352;2023-04-21T12:58:03;19.98;;;12.82;;
28760;SDS011;15917;50.014;8.352;2023-04-21T13:00:28;23.65;;;12.10;;
28760;SDS011;15917;50.014;8.352;2023-04-21T13:02:54;19.08;;;10.75;;
28760;SDS011;15917;50.014;8.352;2023-04-21T13:05:20;19.33;;;12.10;;
28760;SDS011;15917;50.014;8.352;2023-04-21T13:07:45;18.52;;;11.90;;
28760;SDS011;15917;50.014;8.352;2023-04-21T13:10:11;22.00;;;13.05;;
28760;SDS011;15917;50.014;8.352;2023-04-21T13:12:37;15.90;;;10.63;;
28760;SDS011;15917;50.014;8.352;2023-04-21T13:15:02;20.60;;;11.23;;
28760;SDS011;15917;50.014;8.352;2023-04-21T13:17:28;18.77;;;11.68;;
28760;SDS011;15917;50.014;8.352;2023-04-21T13:19:54;16.63;;;10.18;;
28760;SDS011;15917;50.014;8.352;2023-04-21T13:22:20;16.23;;;10.35;;
28760;SDS011;15917;50.014;8.352;2023-04-21T13:24:46;17.02;;;10.25;;
28760;SDS011;15917;50.014;8.352;2023-04-21T13:27:12;18.20;;;10.68;;
28760;SDS011;15917;50.014;8.352;2023-04-21T13:29:37;19.75;;;10.95;;
28760;SDS011;15917;50.014;8.352;2023-04-21T13:32:04;21.05;;;11.48;;
28760;SDS011;15917;50.014;8.352;2023-04-21T13:34:31;14.90;;;9.77;;
28760;SDS011;15917;50.014;8.352;2023-04-21T13:36:57;15.43;;;9.45;;
28760;SDS011;15917;50.014;8.352;2023-04-21T13:39:23;17.27;;;10.07;;
28760;SDS011;15917;50.014;8.352;2023-04-21T13:41:50;17.70;;;10.88;;
28760;SDS011;15917;50.014;8.352;2023-04-21T13:44:16;17.95;;;10.60;;
28760;SDS011;15917;50.014;8.352;2023-04-21T13:46:43;16.33;;;9.50;;
28760;SDS011;15917;50.014;8.352;2023-04-21T13:49:09;19.70;;;9.40;;
28760;SDS011;15917;50.014;8.352;2023-04-21T13:51:35;15.23;;;9.05;;
28760;SDS011;15917;50.014;8.352;2023-04-21T13:54:00;19.92;;;9.82;;
28760;SDS011;15917;50.014;8.352;2023-04-21T13:56:26;16.60;;;9.55;;
28760;SDS011;15917;50.014;8.352;2023-04-21T13:58:52;16.73;;;9.55;;
28760;SDS011;15917;50.014;8.352;2023-04-21T14:01:19;17.17;;;9.73;;
28760;SDS011;15917;50.014;8.352;2023-04-21T14:03:44;16.45;;;9.55;;
28760;SDS011;15917;50.014;8.352;2023-04-21T14:06:10;14.27;;;9.05;;
28760;SDS011;15917;50.014;8.352;2023-04-21T14:08:36;14.60;;;9.07;;
28760;SDS011;15917;50.014;8.352;2023-04-21T14:11:02;16.17;;;8.98;;
28760;SDS011;15917;50.014;8.352;2023-04-21T14:13:28;14.13;;;8.95;;
28760;SDS011;15917;50.014;8.352;2023-04-21T14:15:55;14.20;;;8.52;;
28760;SDS011;15917;50.014;8.352;2023-04-21T14:18:20;14.98;;;9.80;;
28760;SDS011;15917;50.014;8.352;2023-04-21T14:20:46;16.70;;;8.00;;
28760;SDS011;15917;50.014;8.352;2023-04-21T14:23:12;13.25;;;8.63;;
28760;SDS011;15917;50.014;8.352;2023-04-21T14:25:38;12.45;;;8.65;;
28760;SDS011;15917;50.014;8.352;2023-04-21T14:28:03;12.40;;;7.55;;
28760;SDS011;15917;50.014;8.352;2023-04-21T14:30:32;12.13;;;7.90;;
28760;SDS011;15917;50.014;8.352;2023-04-21T14:33:01;13.45;;;7.63;;
28760;SDS011;15917;50.014;8.352;2023-04-21T14:35:27;19.92;;;8.18;;
28760;SDS011;15917;50.014;8.352;2023-04-21T14:37:53;12.52;;;7.60;;
28760;SDS011;15917;50.014;8.352;2023-04-21T14:40:19;11.43;;;7.30;;
28760;SDS011;15917;50.014;8.352;2023-04-21T14:42:44;14.05;;;7.53;;
28760;SDS011;15917;50.014;8.352;2023-04-21T14:45:10;11.98;;;6.57;;
28760;SDS011;15917;50.014;8.352;2023-04-21T14:47:36;12.20;;;7.55;;